X  Close Metar Aviation Weather Data     KSEA Seattle Tacoma International Airport
Temperature
73°F Temperature
46°F Dewpoint
38% Humidity



Wind
8 MPH
13 KM/H
4 M/S
7 KTS



30°
NNE
Current Conditions

Partly Cloudy Partly Cloudy
Pressure 1020.62 (hPa) - 30.14 (inHg)
Visibility 9.9 (mile) - 16 (km)
Airport
Airport-code KSEA

Location: Seattle Tacoma International Airport
Distance: 14 (mi)

Metar:
KSEA 150353Z 03007KT 10SM FEW250 23/08 A3014 RMK AO2 SLP211 T02280083

Time: 08-14-2020 20:53 PDT